Terminal Aerodrome Forecast
Issued by NWS

Home | Current Version | Previous Version | Text Only | Print | Product List | Glossary On
Versions: 1 2 3 4 5 6 7 8 9 10 11 12 13
000
FTUS45 KABQ 231900 AAA
TAFGUP
TAF AMD
KGUP 231953Z 2320/2418 10010G20KT P6SM VCTS SCT090CB BKN120
      TEMPO 2320/2322 VRB15G30KT -TSRA BKN070CB
     FM240000 15011KT P6SM VCSH SCT080 BKN120
     FM240200 VRB05KT P6SM FEW120 SCT200=

USA.gov is the U.S. government's official web portal to all federal, state and local government web resources and services.